sensor_id;sensor_type;location;lat;lon;timestamp;P1;durP1;ratioP1;P2;durP2;ratioP2
38717;SDS011;24468;52.128;9.278;2022-08-26T00:01:39;9.05;;;6.60;;
38717;SDS011;24468;52.128;9.278;2022-08-26T00:04:06;15.98;;;7.15;;
38717;SDS011;24468;52.128;9.278;2022-08-26T00:06:32;11.68;;;6.68;;
38717;SDS011;24468;52.128;9.278;2022-08-26T00:08:58;9.90;;;6.60;;
38717;SDS011;24468;52.128;9.278;2022-08-26T00:11:24;11.25;;;6.90;;
38717;SDS011;24468;52.128;9.278;2022-08-26T00:13:50;13.02;;;6.60;;
38717;SDS011;24468;52.128;9.278;2022-08-26T00:16:15;13.65;;;7.68;;
38717;SDS011;24468;52.128;9.278;2022-08-26T00:18:41;13.35;;;6.63;;
38717;SDS011;24468;52.128;9.278;2022-08-26T00:21:07;11.25;;;7.07;;
38717;SDS011;24468;52.128;9.278;2022-08-26T00:23:34;17.88;;;7.28;;
38717;SDS011;24468;52.128;9.278;2022-08-26T00:26:03;11.15;;;6.53;;
38717;SDS011;24468;52.128;9.278;2022-08-26T00:28:29;7.20;;;6.47;;
38717;SDS011;24468;52.128;9.278;2022-08-26T00:30:55;9.25;;;6.57;;
38717;SDS011;24468;52.128;9.278;2022-08-26T00:33:21;8.70;;;6.95;;
38717;SDS011;24468;52.128;9.278;2022-08-26T00:35:47;11.20;;;6.38;;
38717;SDS011;24468;52.128;9.278;2022-08-26T00:38:13;10.13;;;6.35;;
38717;SDS011;24468;52.128;9.278;2022-08-26T00:40:42;13.63;;;7.57;;
38717;SDS011;24468;52.128;9.278;2022-08-26T00:43:12;14.48;;;7.18;;
38717;SDS011;24468;52.128;9.278;2022-08-26T00:45:39;14.40;;;6.82;;
38717;SDS011;24468;52.128;9.278;2022-08-26T00:48:11;16.88;;;6.68;;
38717;SDS011;24468;52.128;9.278;2022-08-26T00:50:42;13.95;;;6.60;;
38717;SDS011;24468;52.128;9.278;2022-08-26T00:53:16;10.48;;;6.75;;
38717;SDS011;24468;52.128;9.278;2022-08-26T00:55:49;11.07;;;7.40;;
38717;SDS011;24468;52.128;9.278;2022-08-26T00:58:46;13.00;;;7.25;;
38717;SDS011;24468;52.128;9.278;2022-08-26T01:01:14;13.88;;;7.63;;
38717;SDS011;24468;52.128;9.278;2022-08-26T01:03:41;12.23;;;7.28;;
38717;SDS011;24468;52.128;9.278;2022-08-26T01:06:09;14.98;;;6.45;;
38717;SDS011;24468;52.128;9.278;2022-08-26T01:08:36;10.93;;;6.72;;
38717;SDS011;24468;52.128;9.278;2022-08-26T01:11:02;14.93;;;7.30;;
38717;SDS011;24468;52.128;9.278;2022-08-26T01:13:29;9.63;;;6.75;;
38717;SDS011;24468;52.128;9.278;2022-08-26T01:15:57;9.45;;;6.43;;
38717;SDS011;24468;52.128;9.278;2022-08-26T01:18:27;10.95;;;6.85;;
38717;SDS011;24468;52.128;9.278;2022-08-26T01:23:47;10.75;;;7.10;;
38717;SDS011;24468;52.128;9.278;2022-08-26T01:26:23;16.23;;;7.15;;
38717;SDS011;24468;52.128;9.278;2022-08-26T01:28:56;10.70;;;6.75;;
38717;SDS011;24468;52.128;9.278;2022-08-26T01:31:25;11.80;;;7.30;;
38717;SDS011;24468;52.128;9.278;2022-08-26T01:34:29;8.43;;;6.70;;
38717;SDS011;24468;52.128;9.278;2022-08-26T01:36:53;13.27;;;6.50;;
38717;SDS011;24468;52.128;9.278;2022-08-26T01:39:25;16.98;;;7.55;;
38717;SDS011;24468;52.128;9.278;2022-08-26T01:41:52;12.30;;;7.15;;
38717;SDS011;24468;52.128;9.278;2022-08-26T01:44:21;9.52;;;6.82;;
38717;SDS011;24468;52.128;9.278;2022-08-26T01:46:52;16.33;;;7.95;;
38717;SDS011;24468;52.128;9.278;2022-08-26T01:49:19;10.95;;;6.75;;
38717;SDS011;24468;52.128;9.278;2022-08-26T01:51:46;14.75;;;6.43;;
38717;SDS011;24468;52.128;9.278;2022-08-26T01:54:15;10.52;;;7.13;;
38717;SDS011;24468;52.128;9.278;2022-08-26T01:56:41;12.70;;;7.28;;
38717;SDS011;24468;52.128;9.278;2022-08-26T01:59:08;15.43;;;7.18;;
38717;SDS011;24468;52.128;9.278;2022-08-26T02:01:36;10.45;;;7.57;;
38717;SDS011;24468;52.128;9.278;2022-08-26T02:04:04;17.20;;;7.85;;
38717;SDS011;24468;52.128;9.278;2022-08-26T02:06:53;17.35;;;7.93;;
38717;SDS011;24468;52.128;9.278;2022-08-26T02:09:21;11.30;;;6.32;;
38717;SDS011;24468;52.128;9.278;2022-08-26T02:11:49;11.52;;;6.88;;
38717;SDS011;24468;52.128;9.278;2022-08-26T02:14:19;10.75;;;6.40;;
38717;SDS011;24468;52.128;9.278;2022-08-26T02:16:50;13.93;;;7.22;;
38717;SDS011;24468;52.128;9.278;2022-08-26T02:19:19;18.25;;;7.55;;
38717;SDS011;24468;52.128;9.278;2022-08-26T02:21:51;11.02;;;6.60;;
38717;SDS011;24468;52.128;9.278;2022-08-26T02:24:19;10.05;;;7.00;;
38717;SDS011;24468;52.128;9.278;2022-08-26T02:26:50;9.35;;;6.82;;
38717;SDS011;24468;52.128;9.278;2022-08-26T02:29:19;14.07;;;7.13;;
38717;SDS011;24468;52.128;9.278;2022-08-26T02:31:55;14.90;;;7.38;;
38717;SDS011;24468;52.128;9.278;2022-08-26T02:34:26;12.65;;;7.25;;
38717;SDS011;24468;52.128;9.278;2022-08-26T02:37:02;12.85;;;7.03;;
38717;SDS011;24468;52.128;9.278;2022-08-26T02:39:34;10.13;;;6.78;;
38717;SDS011;24468;52.128;9.278;2022-08-26T02:42:01;15.25;;;6.82;;
38717;SDS011;24468;52.128;9.278;2022-08-26T02:44:27;11.82;;;7.18;;
38717;SDS011;24468;52.128;9.278;2022-08-26T02:46:53;13.68;;;7.15;;
38717;SDS011;24468;52.128;9.278;2022-08-26T02:49:20;12.55;;;6.95;;
38717;SDS011;24468;52.128;9.278;2022-08-26T02:51:47;12.90;;;7.00;;
38717;SDS011;24468;52.128;9.278;2022-08-26T02:54:14;21.55;;;7.60;;
38717;SDS011;24468;52.128;9.278;2022-08-26T02:56:45;9.40;;;7.35;;
38717;SDS011;24468;52.128;9.278;2022-08-26T02:59:11;14.18;;;7.32;;
38717;SDS011;24468;52.128;9.278;2022-08-26T03:01:36;10.65;;;7.35;;
38717;SDS011;24468;52.128;9.278;2022-08-26T03:04:04;11.43;;;7.15;;
38717;SDS011;24468;52.128;9.278;2022-08-26T03:06:32;13.75;;;8.15;;
38717;SDS011;24468;52.128;9.278;2022-08-26T03:08:57;11.35;;;8.30;;
38717;SDS011;24468;52.128;9.278;2022-08-26T03:11:23;15.38;;;7.47;;
38717;SDS011;24468;52.128;9.278;2022-08-26T03:13:49;12.35;;;7.32;;
38717;SDS011;24468;52.128;9.278;2022-08-26T03:16:15;13.30;;;8.07;;
38717;SDS011;24468;52.128;9.278;2022-08-26T03:18:42;12.07;;;7.22;;
38717;SDS011;24468;52.128;9.278;2022-08-26T03:21:10;12.85;;;6.85;;
38717;SDS011;24468;52.128;9.278;2022-08-26T03:23:38;9.88;;;6.95;;
38717;SDS011;24468;52.128;9.278;2022-08-26T03:26:06;9.80;;;7.35;;
38717;SDS011;24468;52.128;9.278;2022-08-26T03:28:33;13.98;;;6.90;;
38717;SDS011;24468;52.128;9.278;2022-08-26T03:30:59;14.50;;;7.63;;
38717;SDS011;24468;52.128;9.278;2022-08-26T03:33:25;16.23;;;7.60;;
38717;SDS011;24468;52.128;9.278;2022-08-26T03:35:51;19.00;;;7.32;;
38717;SDS011;24468;52.128;9.278;2022-08-26T03:38:18;16.33;;;8.00;;
38717;SDS011;24468;52.128;9.278;2022-08-26T03:40:46;12.93;;;7.43;;
38717;SDS011;24468;52.128;9.278;2022-08-26T03:43:13;14.77;;;7.30;;
38717;SDS011;24468;52.128;9.278;2022-08-26T03:45:40;14.40;;;7.03;;
38717;SDS011;24468;52.128;9.278;2022-08-26T03:48:06;16.63;;;8.65;;
38717;SDS011;24468;52.128;9.278;2022-08-26T03:50:32;10.48;;;6.82;;
38717;SDS011;24468;52.128;9.278;2022-08-26T03:52:59;14.93;;;7.65;;
38717;SDS011;24468;52.128;9.278;2022-08-26T03:55:27;20.90;;;7.88;;
38717;SDS011;24468;52.128;9.278;2022-08-26T03:57:58;13.13;;;7.43;;
38717;SDS011;24468;52.128;9.278;2022-08-26T04:00:24;12.32;;;7.07;;
38717;SDS011;24468;52.128;9.278;2022-08-26T04:02:50;10.02;;;7.20;;
38717;SDS011;24468;52.128;9.278;2022-08-26T04:05:17;11.57;;;7.57;;
38717;SDS011;24468;52.128;9.278;2022-08-26T04:07:45;10.73;;;6.93;;
38717;SDS011;24468;52.128;9.278;2022-08-26T04:10:13;14.20;;;6.93;;
38717;SDS011;24468;52.128;9.278;2022-08-26T04:12:41;10.52;;;7.45;;
38717;SDS011;24468;52.128;9.278;2022-08-26T04:15:10;13.25;;;7.95;;
38717;SDS011;24468;52.128;9.278;2022-08-26T04:17:39;11.47;;;7.23;;
38717;SDS011;24468;52.128;9.278;2022-08-26T04:20:05;12.20;;;7.43;;
38717;SDS011;24468;52.128;9.278;2022-08-26T04:22:32;11.43;;;6.80;;
38717;SDS011;24468;52.128;9.278;2022-08-26T04:24:58;13.88;;;6.93;;
38717;SDS011;24468;52.128;9.278;2022-08-26T04:27:23;11.05;;;7.85;;
38717;SDS011;24468;52.128;9.278;2022-08-26T04:29:49;15.45;;;8.02;;
38717;SDS011;24468;52.128;9.278;2022-08-26T04:32:15;12.70;;;8.52;;
38717;SDS011;24468;52.128;9.278;2022-08-26T04:34:41;17.27;;;7.90;;
38717;SDS011;24468;52.128;9.278;2022-08-26T04:37:06;9.95;;;7.18;;
38717;SDS011;24468;52.128;9.278;2022-08-26T04:39:35;10.18;;;6.55;;
38717;SDS011;24468;52.128;9.278;2022-08-26T04:42:00;10.13;;;7.18;;
38717;SDS011;24468;52.128;9.278;2022-08-26T04:44:27;11.55;;;7.60;;
38717;SDS011;24468;52.128;9.278;2022-08-26T04:46:54;10.98;;;7.25;;
38717;SDS011;24468;52.128;9.278;2022-08-26T04:49:20;13.63;;;7.53;;
38717;SDS011;24468;52.128;9.278;2022-08-26T04:51:47;18.65;;;7.85;;
38717;SDS011;24468;52.128;9.278;2022-08-26T04:54:13;12.02;;;7.65;;
38717;SDS011;24468;52.128;9.278;2022-08-26T04:56:40;14.32;;;8.23;;
38717;SDS011;24468;52.128;9.278;2022-08-26T04:59:09;10.55;;;7.90;;
38717;SDS011;24468;52.128;9.278;2022-08-26T05:01:41;13.13;;;7.35;;
38717;SDS011;24468;52.128;9.278;2022-08-26T05:04:10;12.90;;;7.88;;
38717;SDS011;24468;52.128;9.278;2022-08-26T05:06:36;17.63;;;7.78;;
38717;SDS011;24468;52.128;9.278;2022-08-26T05:09:02;13.70;;;7.82;;
38717;SDS011;24468;52.128;9.278;2022-08-26T05:11:28;21.25;;;8.82;;
38717;SDS011;24468;52.128;9.278;2022-08-26T05:13:54;12.55;;;8.20;;
38717;SDS011;24468;52.128;9.278;2022-08-26T05:16:19;14.77;;;8.20;;
38717;SDS011;24468;52.128;9.278;2022-08-26T05:18:45;16.70;;;7.88;;
38717;SDS011;24468;52.128;9.278;2022-08-26T05:21:14;9.98;;;7.50;;
38717;SDS011;24468;52.128;9.278;2022-08-26T05:23:47;23.50;;;8.57;;
38717;SDS011;24468;52.128;9.278;2022-08-26T05:26:15;16.25;;;7.90;;
38717;SDS011;24468;52.128;9.278;2022-08-26T05:28:42;17.23;;;8.45;;
38717;SDS011;24468;52.128;9.278;2022-08-26T05:31:16;13.40;;;7.78;;
38717;SDS011;24468;52.128;9.278;2022-08-26T05:33:45;17.55;;;8.05;;
38717;SDS011;24468;52.128;9.278;2022-08-26T05:36:12;17.90;;;8.60;;
38717;SDS011;24468;52.128;9.278;2022-08-26T05:38:41;17.77;;;7.63;;
38717;SDS011;24468;52.128;9.278;2022-08-26T05:41:17;16.88;;;8.43;;
38717;SDS011;24468;52.128;9.278;2022-08-26T05:43:48;12.93;;;8.85;;
38717;SDS011;24468;52.128;9.278;2022-08-26T05:46:15;18.95;;;9.68;;
38717;SDS011;24468;52.128;9.278;2022-08-26T05:48:40;15.65;;;8.98;;
38717;SDS011;24468;52.128;9.278;2022-08-26T05:51:07;17.70;;;10.52;;
38717;SDS011;24468;52.128;9.278;2022-08-26T05:53:35;15.98;;;9.52;;
38717;SDS011;24468;52.128;9.278;2022-08-26T05:56:03;17.27;;;10.48;;
38717;SDS011;24468;52.128;9.278;2022-08-26T05:58:31;18.10;;;9.35;;
38717;SDS011;24468;52.128;9.278;2022-08-26T06:01:03;18.27;;;9.48;;
38717;SDS011;24468;52.128;9.278;2022-08-26T06:03:32;20.45;;;10.20;;
38717;SDS011;24468;52.128;9.278;2022-08-26T06:06:08;15.93;;;9.82;;
38717;SDS011;24468;52.128;9.278;2022-08-26T06:08:37;14.45;;;9.60;;
38717;SDS011;24468;52.128;9.278;2022-08-26T06:11:05;17.58;;;9.88;;
38717;SDS011;24468;52.128;9.278;2022-08-26T06:13:34;23.20;;;11.55;;
38717;SDS011;24468;52.128;9.278;2022-08-26T06:16:02;24.60;;;11.13;;
38717;SDS011;24468;52.128;9.278;2022-08-26T06:18:31;20.08;;;10.18;;
38717;SDS011;24468;52.128;9.278;2022-08-26T06:23:58;15.68;;;9.73;;
38717;SDS011;24468;52.128;9.278;2022-08-26T06:26:58;18.50;;;10.50;;
38717;SDS011;24468;52.128;9.278;2022-08-26T06:29:32;20.20;;;10.55;;
38717;SDS011;24468;52.128;9.278;2022-08-26T06:31:59;18.60;;;11.00;;
38717;SDS011;24468;52.128;9.278;2022-08-26T06:34:26;17.20;;;10.20;;
38717;SDS011;24468;52.128;9.278;2022-08-26T06:36:53;21.35;;;11.30;;
38717;SDS011;24468;52.128;9.278;2022-08-26T06:39:21;20.83;;;10.20;;
38717;SDS011;24468;52.128;9.278;2022-08-26T06:41:47;19.35;;;10.75;;
38717;SDS011;24468;52.128;9.278;2022-08-26T06:44:13;19.63;;;9.77;;
38717;SDS011;24468;52.128;9.278;2022-08-26T06:46:40;26.45;;;11.43;;
38717;SDS011;24468;52.128;9.278;2022-08-26T06:49:06;14.75;;;9.90;;
38717;SDS011;24468;52.128;9.278;2022-08-26T06:51:33;19.65;;;10.70;;
38717;SDS011;24468;52.128;9.278;2022-08-26T06:54:01;18.90;;;10.90;;
38717;SDS011;24468;52.128;9.278;2022-08-26T06:56:39;17.77;;;10.70;;
38717;SDS011;24468;52.128;9.278;2022-08-26T06:59:07;25.73;;;11.95;;
38717;SDS011;24468;52.128;9.278;2022-08-26T07:01:37;19.67;;;11.02;;
38717;SDS011;24468;52.128;9.278;2022-08-26T07:04:08;20.65;;;11.45;;
38717;SDS011;24468;52.128;9.278;2022-08-26T07:06:39;17.70;;;11.13;;
38717;SDS011;24468;52.128;9.278;2022-08-26T07:09:07;18.17;;;10.35;;
38717;SDS011;24468;52.128;9.278;2022-08-26T07:11:34;22.50;;;10.77;;
38717;SDS011;24468;52.128;9.278;2022-08-26T07:14:02;18.20;;;10.02;;
38717;SDS011;24468;52.128;9.278;2022-08-26T07:16:28;20.13;;;10.27;;
38717;SDS011;24468;52.128;9.278;2022-08-26T07:18:54;25.00;;;10.50;;
38717;SDS011;24468;52.128;9.278;2022-08-26T07:21:21;20.88;;;10.98;;
38717;SDS011;24468;52.128;9.278;2022-08-26T07:23:47;20.13;;;10.13;;
38717;SDS011;24468;52.128;9.278;2022-08-26T07:26:14;14.73;;;8.30;;
38717;SDS011;24468;52.128;9.278;2022-08-26T07:28:44;19.70;;;8.93;;
38717;SDS011;24468;52.128;9.278;2022-08-26T07:31:13;28.50;;;10.63;;
38717;SDS011;24468;52.128;9.278;2022-08-26T07:33:40;19.58;;;9.85;;
38717;SDS011;24468;52.128;9.278;2022-08-26T07:36:06;19.67;;;8.85;;
38717;SDS011;24468;52.128;9.278;2022-08-26T07:38:34;23.90;;;10.38;;
38717;SDS011;24468;52.128;9.278;2022-08-26T07:41:01;23.95;;;9.40;;
38717;SDS011;24468;52.128;9.278;2022-08-26T07:43:27;18.30;;;9.48;;
38717;SDS011;24468;52.128;9.278;2022-08-26T07:45:54;21.00;;;9.35;;
38717;SDS011;24468;52.128;9.278;2022-08-26T07:48:20;17.38;;;8.82;;
38717;SDS011;24468;52.128;9.278;2022-08-26T07:50:47;24.08;;;9.50;;
38717;SDS011;24468;52.128;9.278;2022-08-26T07:53:12;31.65;;;10.55;;
38717;SDS011;24468;52.128;9.278;2022-08-26T07:55:39;20.40;;;8.98;;
38717;SDS011;24468;52.128;9.278;2022-08-26T07:58:05;20.17;;;8.90;;
38717;SDS011;24468;52.128;9.278;2022-08-26T08:00:31;19.98;;;8.70;;
38717;SDS011;24468;52.128;9.278;2022-08-26T08:02:58;18.33;;;8.15;;
38717;SDS011;24468;52.128;9.278;2022-08-26T08:05:25;19.55;;;9.32;;
38717;SDS011;24468;52.128;9.278;2022-08-26T08:07:50;21.95;;;9.40;;
38717;SDS011;24468;52.128;9.278;2022-08-26T08:10:21;27.02;;;10.25;;
38717;SDS011;24468;52.128;9.278;2022-08-26T08:12:49;19.10;;;9.00;;
38717;SDS011;24468;52.128;9.278;2022-08-26T08:15:18;16.02;;;8.73;;
38717;SDS011;24468;52.128;9.278;2022-08-26T08:17:48;15.35;;;8.30;;
38717;SDS011;24468;52.128;9.278;2022-08-26T08:20:14;27.23;;;10.40;;
38717;SDS011;24468;52.128;9.278;2022-08-26T08:22:41;21.98;;;8.75;;
38717;SDS011;24468;52.128;9.278;2022-08-26T08:25:07;21.27;;;9.25;;
38717;SDS011;24468;52.128;9.278;2022-08-26T08:27:34;23.17;;;8.52;;
38717;SDS011;24468;52.128;9.278;2022-08-26T08:30:01;25.38;;;8.48;;
38717;SDS011;24468;52.128;9.278;2022-08-26T08:32:28;21.80;;;9.07;;
38717;SDS011;24468;52.128;9.278;2022-08-26T08:34:54;23.63;;;8.95;;
38717;SDS011;24468;52.128;9.278;2022-08-26T08:37:21;30.25;;;9.38;;
38717;SDS011;24468;52.128;9.278;2022-08-26T08:39:47;24.50;;;9.25;;
38717;SDS011;24468;52.128;9.278;2022-08-26T08:45:21;22.95;;;8.82;;
38717;SDS011;24468;52.128;9.278;2022-08-26T08:47:56;23.60;;;8.27;;
38717;SDS011;24468;52.128;9.278;2022-08-26T08:50:27;22.40;;;9.85;;
38717;SDS011;24468;52.128;9.278;2022-08-26T08:59:12;22.02;;;11.40;;
38717;SDS011;24468;52.128;9.278;2022-08-26T09:10:31;21.63;;;9.43;;
38717;SDS011;24468;52.128;9.278;2022-08-26T09:13:11;24.15;;;8.68;;
38717;SDS011;24468;52.128;9.278;2022-08-26T09:21:29;20.30;;;8.63;;
38717;SDS011;24468;52.128;9.278;2022-08-26T09:23:55;21.85;;;9.40;;
38717;SDS011;24468;52.128;9.278;2022-08-26T09:29:29;22.20;;;9.27;;
38717;SDS011;24468;52.128;9.278;2022-08-26T09:32:16;21.42;;;8.18;;
38717;SDS011;24468;52.128;9.278;2022-08-26T09:35:02;19.08;;;8.30;;
38717;SDS011;24468;52.128;9.278;2022-08-26T09:37:47;17.15;;;7.85;;
38717;SDS011;24468;52.128;9.278;2022-08-26T09:45:43;16.75;;;7.88;;
38717;SDS011;24468;52.128;9.278;2022-08-26T09:50:55;18.25;;;7.93;;
38717;SDS011;24468;52.128;9.278;2022-08-26T09:53:25;27.50;;;8.93;;
38717;SDS011;24468;52.128;9.278;2022-08-26T09:56:11;16.48;;;7.18;;
38717;SDS011;24468;52.128;9.278;2022-08-26T09:58:53;19.17;;;7.78;;
38717;SDS011;24468;52.128;9.278;2022-08-26T10:01:30;15.18;;;7.47;;
38717;SDS011;24468;52.128;9.278;2022-08-26T10:04:10;18.30;;;7.88;;
38717;SDS011;24468;52.128;9.278;2022-08-26T10:07:08;25.30;;;8.48;;
38717;SDS011;24468;52.128;9.278;2022-08-26T10:09:35;17.05;;;8.15;;
38717;SDS011;24468;52.128;9.278;2022-08-26T10:12:07;14.32;;;7.53;;
38717;SDS011;24468;52.128;9.278;2022-08-26T10:14:47;13.30;;;8.35;;
38717;SDS011;24468;52.128;9.278;2022-08-26T10:19:50;17.15;;;7.00;;
38717;SDS011;24468;52.128;9.278;2022-08-26T10:22:39;20.55;;;7.80;;
38717;SDS011;24468;52.128;9.278;2022-08-26T10:25:20;19.15;;;8.73;;
38717;SDS011;24468;52.128;9.278;2022-08-26T10:28:06;19.17;;;8.68;;
38717;SDS011;24468;52.128;9.278;2022-08-26T10:30:44;20.40;;;7.68;;
38717;SDS011;24468;52.128;9.278;2022-08-26T10:33:15;18.13;;;7.65;;
38717;SDS011;24468;52.128;9.278;2022-08-26T10:38:21;17.25;;;7.97;;
38717;SDS011;24468;52.128;9.278;2022-08-26T10:41:08;18.98;;;8.10;;
38717;SDS011;24468;52.128;9.278;2022-08-26T10:46:22;33.95;;;6.97;;
38717;SDS011;24468;52.128;9.278;2022-08-26T10:49:01;19.25;;;5.55;;
38717;SDS011;24468;52.128;9.278;2022-08-26T10:51:41;11.57;;;4.25;;
38717;SDS011;24468;52.128;9.278;2022-08-26T10:57:27;5.10;;;2.85;;
38717;SDS011;24468;52.128;9.278;2022-08-26T11:00:33;7.75;;;3.72;;
38717;SDS011;24468;52.128;9.278;2022-08-26T11:08:58;4.80;;;4.13;;
38717;SDS011;24468;52.128;9.278;2022-08-26T11:22:26;6.93;;;4.53;;
38717;SDS011;24468;52.128;9.278;2022-08-26T11:25:09;8.90;;;4.50;;
38717;SDS011;24468;52.128;9.278;2022-08-26T11:30:07;8.65;;;4.95;;
38717;SDS011;24468;52.128;9.278;2022-08-26T11:32:57;6.22;;;4.45;;
38717;SDS011;24468;52.128;9.278;2022-08-26T11:38:02;7.43;;;4.85;;
38717;SDS011;24468;52.128;9.278;2022-08-26T11:40:42;8.27;;;5.20;;
38717;SDS011;24468;52.128;9.278;2022-08-26T11:43:12;6.93;;;4.63;;
38717;SDS011;24468;52.128;9.278;2022-08-26T11:45:45;7.00;;;4.28;;
38717;SDS011;24468;52.128;9.278;2022-08-26T11:51:12;4.97;;;3.70;;
38717;SDS011;24468;52.128;9.278;2022-08-26T11:53:48;5.55;;;3.92;;
38717;SDS011;24468;52.128;9.278;2022-08-26T11:56:31;6.28;;;4.68;;
38717;SDS011;24468;52.128;9.278;2022-08-26T11:59:01;7.97;;;4.50;;
38717;SDS011;24468;52.128;9.278;2022-08-26T12:01:33;8.30;;;5.47;;
38717;SDS011;24468;52.128;9.278;2022-08-26T12:04:07;8.32;;;5.63;;
38717;SDS011;24468;52.128;9.278;2022-08-26T12:06:38;10.63;;;4.88;;
38717;SDS011;24468;52.128;9.278;2022-08-26T12:09:25;8.38;;;5.25;;
38717;SDS011;24468;52.128;9.278;2022-08-26T12:12:09;10.05;;;4.82;;
38717;SDS011;24468;52.128;9.278;2022-08-26T12:14:39;7.60;;;4.82;;
38717;SDS011;24468;52.128;9.278;2022-08-26T12:17:47;7.82;;;4.55;;
38717;SDS011;24468;52.128;9.278;2022-08-26T12:19:54;13.50;;;5.22;;
38717;SDS011;24468;52.128;9.278;2022-08-26T12:22:24;10.10;;;5.47;;
38717;SDS011;24468;52.128;9.278;2022-08-26T12:24:59;13.93;;;5.45;;
38717;SDS011;24468;52.128;9.278;2022-08-26T12:32:42;7.90;;;4.85;;
38717;SDS011;24468;52.128;9.278;2022-08-26T12:35:37;11.30;;;4.88;;
38717;SDS011;24468;52.128;9.278;2022-08-26T12:38:03;11.30;;;4.85;;
38717;SDS011;24468;52.128;9.278;2022-08-26T12:42:55;8.57;;;4.88;;
38717;SDS011;24468;52.128;9.278;2022-08-26T12:45:25;10.25;;;5.18;;
38717;SDS011;24468;52.128;9.278;2022-08-26T12:47:58;7.97;;;5.10;;
38717;SDS011;24468;52.128;9.278;2022-08-26T12:50:38;10.32;;;4.85;;
38717;SDS011;24468;52.128;9.278;2022-08-26T12:53:22;9.70;;;5.50;;
38717;SDS011;24468;52.128;9.278;2022-08-26T12:55:51;11.15;;;5.47;;
38717;SDS011;24468;52.128;9.278;2022-08-26T12:58:21;10.07;;;5.28;;
38717;SDS011;24468;52.128;9.278;2022-08-26T13:00:57;10.00;;;4.63;;
38717;SDS011;24468;52.128;9.278;2022-08-26T13:03:46;14.75;;;5.75;;
38717;SDS011;24468;52.128;9.278;2022-08-26T13:08:48;16.40;;;6.45;;
38717;SDS011;24468;52.128;9.278;2022-08-26T13:11:18;15.35;;;6.30;;
38717;SDS011;24468;52.128;9.278;2022-08-26T13:13:49;14.38;;;5.93;;
38717;SDS011;24468;52.128;9.278;2022-08-26T13:16:23;13.32;;;6.20;;
38717;SDS011;24468;52.128;9.278;2022-08-26T13:18:50;14.05;;;6.07;;
38717;SDS011;24468;52.128;9.278;2022-08-26T13:21:21;10.45;;;5.95;;
38717;SDS011;24468;52.128;9.278;2022-08-26T13:23:50;14.13;;;5.57;;
38717;SDS011;24468;52.128;9.278;2022-08-26T13:26:17;13.43;;;5.95;;
38717;SDS011;24468;52.128;9.278;2022-08-26T13:28:43;9.82;;;4.90;;
38717;SDS011;24468;52.128;9.278;2022-08-26T13:31:12;22.00;;;6.07;;
38717;SDS011;24468;52.128;9.278;2022-08-26T13:33:39;21.88;;;5.70;;
38717;SDS011;24468;52.128;9.278;2022-08-26T13:36:05;12.80;;;5.53;;
38717;SDS011;24468;52.128;9.278;2022-08-26T13:38:31;16.92;;;6.75;;
38717;SDS011;24468;52.128;9.278;2022-08-26T13:40:57;11.38;;;5.93;;
38717;SDS011;24468;52.128;9.278;2022-08-26T13:43:24;10.15;;;5.15;;
38717;SDS011;24468;52.128;9.278;2022-08-26T13:45:51;9.32;;;5.28;;
38717;SDS011;24468;52.128;9.278;2022-08-26T13:48:17;11.05;;;6.18;;
38717;SDS011;24468;52.128;9.278;2022-08-26T13:50:43;9.40;;;6.07;;
38717;SDS011;24468;52.128;9.278;2022-08-26T13:53:11;12.23;;;5.80;;
38717;SDS011;24468;52.128;9.278;2022-08-26T13:55:38;10.85;;;5.40;;
38717;SDS011;24468;52.128;9.278;2022-08-26T13:58:05;11.25;;;5.35;;
38717;SDS011;24468;52.128;9.278;2022-08-26T14:00:31;10.82;;;5.88;;
38717;SDS011;24468;52.128;9.278;2022-08-26T14:02:59;10.95;;;6.25;;
38717;SDS011;24468;52.128;9.278;2022-08-26T14:05:25;15.73;;;7.35;;
38717;SDS011;24468;52.128;9.278;2022-08-26T14:07:52;17.08;;;7.88;;
38717;SDS011;24468;52.128;9.278;2022-08-26T14:10:18;18.08;;;8.15;;
38717;SDS011;24468;52.128;9.278;2022-08-26T14:12:44;10.80;;;6.85;;
38717;SDS011;24468;52.128;9.278;2022-08-26T14:15:10;10.77;;;7.05;;
38717;SDS011;24468;52.128;9.278;2022-08-26T14:17:37;10.68;;;7.47;;
38717;SDS011;24468;52.128;9.278;2022-08-26T14:20:03;13.85;;;6.82;;
38717;SDS011;24468;52.128;9.278;2022-08-26T14:22:31;15.50;;;7.75;;
38717;SDS011;24468;52.128;9.278;2022-08-26T14:24:57;10.48;;;7.15;;
38717;SDS011;24468;52.128;9.278;2022-08-26T14:27:23;12.88;;;7.10;;
38717;SDS011;24468;52.128;9.278;2022-08-26T14:29:49;12.43;;;7.03;;
38717;SDS011;24468;52.128;9.278;2022-08-26T14:32:19;16.10;;;8.63;;
38717;SDS011;24468;52.128;9.278;2022-08-26T14:34:51;11.57;;;8.18;;
38717;SDS011;24468;52.128;9.278;2022-08-26T14:37:17;12.93;;;8.13;;
38717;SDS011;24468;52.128;9.278;2022-08-26T14:39:43;16.85;;;8.63;;
38717;SDS011;24468;52.128;9.278;2022-08-26T14:42:10;14.52;;;8.93;;
38717;SDS011;24468;52.128;9.278;2022-08-26T14:44:39;9.95;;;8.32;;
38717;SDS011;24468;52.128;9.278;2022-08-26T14:47:08;12.82;;;8.77;;
38717;SDS011;24468;52.128;9.278;2022-08-26T14:49:34;16.35;;;8.82;;
38717;SDS011;24468;52.128;9.278;2022-08-26T14:52:00;14.20;;;9.05;;
38717;SDS011;24468;52.128;9.278;2022-08-26T14:54:26;11.52;;;8.00;;
38717;SDS011;24468;52.128;9.278;2022-08-26T14:56:54;16.58;;;8.18;;
38717;SDS011;24468;52.128;9.278;2022-08-26T14:59:34;10.73;;;7.95;;
38717;SDS011;24468;52.128;9.278;2022-08-26T15:02:03;9.20;;;6.95;;
38717;SDS011;24468;52.128;9.278;2022-08-26T15:04:30;11.00;;;7.10;;
38717;SDS011;24468;52.128;9.278;2022-08-26T15:06:57;10.27;;;6.93;;
38717;SDS011;24468;52.128;9.278;2022-08-26T15:09:24;14.20;;;7.80;;
38717;SDS011;24468;52.128;9.278;2022-08-26T15:11:51;9.38;;;7.15;;
38717;SDS011;24468;52.128;9.278;2022-08-26T15:14:17;10.40;;;6.78;;
38717;SDS011;24468;52.128;9.278;2022-08-26T15:16:44;7.43;;;6.72;;
38717;SDS011;24468;52.128;9.278;2022-08-26T15:19:11;8.77;;;6.80;;
38717;SDS011;24468;52.128;9.278;2022-08-26T15:21:37;25.98;;;7.40;;
38717;SDS011;24468;52.128;9.278;2022-08-26T15:24:03;27.65;;;8.73;;
38717;SDS011;24468;52.128;9.278;2022-08-26T15:26:29;14.27;;;7.65;;
38717;SDS011;24468;52.128;9.278;2022-08-26T15:28:56;8.35;;;7.25;;
38717;SDS011;24468;52.128;9.278;2022-08-26T15:31:26;9.75;;;6.57;;
38717;SDS011;24468;52.128;9.278;2022-08-26T15:33:59;12.38;;;7.15;;
38717;SDS011;24468;52.128;9.278;2022-08-26T15:36:33;11.15;;;6.78;;
38717;SDS011;24468;52.128;9.278;2022-08-26T15:39:02;10.57;;;7.68;;
38717;SDS011;24468;52.128;9.278;2022-08-26T15:41:30;14.55;;;7.80;;
38717;SDS011;24468;52.128;9.278;2022-08-26T15:43:56;12.68;;;9.43;;
38717;SDS011;24468;52.128;9.278;2022-08-26T15:46:22;10.55;;;8.60;;
38717;SDS011;24468;52.128;9.278;2022-08-26T15:48:48;11.40;;;8.80;;
38717;SDS011;24468;52.128;9.278;2022-08-26T15:51:26;10.00;;;7.82;;
38717;SDS011;24468;52.128;9.278;2022-08-26T15:53:58;8.65;;;6.80;;
38717;SDS011;24468;52.128;9.278;2022-08-26T15:56:26;7.25;;;6.55;;
38717;SDS011;24468;52.128;9.278;2022-08-26T15:58:54;9.77;;;7.20;;
38717;SDS011;24468;52.128;9.278;2022-08-26T16:01:21;10.18;;;7.07;;
38717;SDS011;24468;52.128;9.278;2022-08-26T16:03:48;9.80;;;7.10;;
38717;SDS011;24468;52.128;9.278;2022-08-26T16:06:15;14.80;;;7.50;;
38717;SDS011;24468;52.128;9.278;2022-08-26T16:08:44;12.45;;;6.95;;
38717;SDS011;24468;52.128;9.278;2022-08-26T16:11:11;14.32;;;6.82;;
38717;SDS011;24468;52.128;9.278;2022-08-26T16:13:38;10.10;;;6.63;;
38717;SDS011;24468;52.128;9.278;2022-08-26T16:16:03;12.80;;;6.38;;
38717;SDS011;24468;52.128;9.278;2022-08-26T16:18:29;14.88;;;6.30;;